Time;durP1;ratioP1;P1;durP2;ratioP2;P2;SDS_P1;SDS_P2;PMS_P1;PMS_P2;Temp;Humidity;BMP_temperature;BMP_pressure;BME280_temperature;BME280_humidity;BME280_pressure;Samples;Min_cycle;Max_cycle;Signal;HPM_P1;HPM_P2
2021/11/15 00:00:17;;;;;;;71.57;34.00;;;-0.20;99.90;;;;;;4124562;28;20330;-64
2021/11/15 00:02:20;;;;;;;75.73;37.40;;;-0.20;99.90;;;;;;4124308;28;20745;-63
2021/11/15 00:04:21;;;;;;;77.30;36.63;;;-0.30;99.90;;;;;;4124720;28;20777;-64
2021/11/15 00:06:23;;;;;;;82.93;39.23;;;-0.30;99.90;;;;;;4123419;28;20355;-63
2021/11/15 00:08:26;;;;;;;84.03;37.70;;;-0.30;99.90;;;;;;4123408;28;20276;-62
2021/11/15 00:10:27;;;;;;;84.73;39.47;;;-0.30;99.90;;;;;;4122332;28;20326;-62
2021/11/15 00:12:28;;;;;;;78.63;38.90;;;-0.30;99.90;;;;;;4124676;28;20757;-62
2021/11/15 00:14:29;;;;;;;90.83;41.33;;;-0.30;99.90;;;;;;4111240;28;20316;-62
2021/11/15 00:16:31;;;;;;;84.53;39.67;;;-0.20;99.90;;;;;;4108279;28;20276;-63
2021/11/15 00:18:32;;;;;;;84.37;41.23;;;-0.20;99.90;;;;;;4105699;28;20795;-63
2021/11/15 00:20:35;;;;;;;85.50;38.50;;;-0.10;99.90;;;;;;4108947;28;20412;-64
2021/11/15 00:22:37;;;;;;;83.53;40.17;;;-0.10;99.90;;;;;;4105447;28;20339;-61
2021/11/15 00:24:38;;;;;;;80.47;40.37;;;-0.10;99.90;;;;;;4108970;28;20324;-63
2021/11/15 00:26:39;;;;;;;80.10;38.40;;;-0.10;99.90;;;;;;4107656;28;20292;-62
2021/11/15 00:28:40;;;;;;;85.30;40.10;;;-0.10;99.90;;;;;;4108581;28;20323;-63
2021/11/15 00:30:42;;;;;;;79.43;37.77;;;-0.10;99.90;;;;;;4107964;28;20280;-62
2021/11/15 00:32:43;;;;;;;84.37;37.30;;;-0.10;99.90;;;;;;4108136;28;20273;-65
2021/11/15 00:34:44;;;;;;;77.57;37.27;;;0.00;99.90;;;;;;4108281;28;20261;-63
2021/11/15 00:36:45;;;;;;;77.73;36.93;;;0.00;99.90;;;;;;4107378;28;20277;-62
2021/11/15 00:38:47;;;;;;;70.87;35.20;;;0.00;99.90;;;;;;4107662;28;20261;-63
2021/11/15 00:40:48;;;;;;;73.87;34.33;;;0.10;99.90;;;;;;4107518;28;20726;-63
2021/11/15 00:42:50;;;;;;;73.00;34.73;;;0.10;99.90;;;;;;4107627;28;20277;-67
2021/11/15 00:44:51;;;;;;;77.93;35.50;;;0.10;99.90;;;;;;4107347;28;20669;-62
2021/11/15 00:46:52;;;;;;;74.40;37.80;;;0.10;99.90;;;;;;4108806;28;20297;-63
2021/11/15 00:48:56;;;;;;;74.63;36.47;;;0.10;99.90;;;;;;4107421;28;20265;-64
2021/11/15 00:50:58;;;;;;;76.70;37.20;;;0.10;99.90;;;;;;4108314;28;21192;-64
2021/11/15 00:53:00;;;;;;;80.20;37.40;;;0.10;99.90;;;;;;4107017;28;20273;-62
2021/11/15 00:55:01;;;;;;;77.13;36.07;;;0.10;99.90;;;;;;4113846;28;20777;-63
2021/11/15 00:57:04;;;;;;;77.10;37.13;;;0.10;99.90;;;;;;4107053;28;20316;-64
2021/11/15 00:59:05;;;;;;;77.30;35.63;;;0.10;99.90;;;;;;4107261;28;20698;-64
2021/11/15 01:01:06;;;;;;;70.87;34.53;;;0.00;99.90;;;;;;4107442;28;20268;-63
2021/11/15 01:03:10;;;;;;;74.07;35.60;;;0.00;99.90;;;;;;4123803;28;20311;-62
2021/11/15 01:05:13;;;;;;;80.50;36.43;;;0.00;99.90;;;;;;4123353;28;20267;-63
2021/11/15 01:07:14;;;;;;;77.00;37.23;;;0.00;99.90;;;;;;4123352;28;20334;-65
2021/11/15 01:09:15;;;;;;;76.37;36.23;;;0.00;99.90;;;;;;4122622;28;20288;-64
2021/11/15 01:11:16;;;;;;;75.87;34.67;;;0.00;99.90;;;;;;4123351;28;20276;-61
2021/11/15 01:13:18;;;;;;;82.80;36.90;;;0.10;99.90;;;;;;4123030;28;20284;-63
2021/11/15 01:15:22;;;;;;;81.73;36.80;;;0.10;99.90;;;;;;4122773;28;20268;-63
2021/11/15 01:17:24;;;;;;;74.87;36.63;;;0.10;99.90;;;;;;4123021;28;20280;-63
2021/11/15 01:19:25;;;;;;;75.90;36.53;;;0.10;99.90;;;;;;4122729;28;20268;-61
2021/11/15 01:21:28;;;;;;;75.30;36.10;;;0.10;99.90;;;;;;4123842;28;20392;-62
2021/11/15 01:23:29;;;;;;;76.47;35.13;;;0.10;99.90;;;;;;4123305;28;20318;-62
2021/11/15 01:25:30;;;;;;;76.33;36.33;;;0.10;99.90;;;;;;4124445;28;20264;-63
2021/11/15 01:27:32;;;;;;;86.10;36.53;;;0.10;99.90;;;;;;4122350;28;20354;-63
2021/11/15 01:29:33;;;;;;;77.03;34.67;;;0.10;99.90;;;;;;4123260;28;20315;-62
2021/11/15 01:31:34;;;;;;;71.80;34.73;;;0.10;99.90;;;;;;4122914;28;20649;-62
2021/11/15 01:33:35;;;;;;;73.67;35.87;;;0.10;99.90;;;;;;4122143;28;20280;-62
2021/11/15 01:35:36;;;;;;;69.83;33.00;;;0.10;99.90;;;;;;4123233;28;20350;-63
2021/11/15 01:37:38;;;;;;;72.73;34.90;;;0.10;99.90;;;;;;4123849;28;20276;-63
2021/11/15 01:39:41;;;;;;;70.83;33.67;;;0.10;99.90;;;;;;4123247;28;20689;-63
2021/11/15 01:41:42;;;;;;;68.90;32.80;;;0.10;99.90;;;;;;4123402;28;20264;-62
2021/11/15 01:43:44;;;;;;;62.97;32.17;;;0.10;99.90;;;;;;4108650;28;20724;-63
2021/11/15 01:45:45;;;;;;;63.20;31.40;;;0.00;99.90;;;;;;4105974;28;20300;-63
2021/11/15 01:47:47;;;;;;;62.90;32.07;;;0.00;99.90;;;;;;4090497;28;20281;-62
2021/11/15 01:49:48;;;;;;;63.43;31.57;;;0.00;99.90;;;;;;4106554;28;20277;-64
2021/11/15 01:51:49;;;;;;;63.87;30.93;;;0.00;99.90;;;;;;4111811;28;20827;-64
2021/11/15 01:53:50;;;;;;;71.67;33.13;;;0.00;99.90;;;;;;4122918;28;20268;-64
2021/11/15 01:55:52;;;;;;;66.43;32.10;;;0.00;99.90;;;;;;4123018;28;20780;-64
2021/11/15 01:57:57;;;;;;;66.07;32.63;;;-0.10;99.90;;;;;;4122679;28;20264;-63
2021/11/15 01:59:58;;;;;;;66.83;31.90;;;-0.10;99.90;;;;;;4123570;28;20609;-64
2021/11/15 02:02:00;;;;;;;67.10;31.37;;;-0.20;99.90;;;;;;4122505;28;20330;-64
2021/11/15 02:04:01;;;;;;;61.60;28.90;;;-0.20;99.90;;;;;;4123347;28;20331;-64
2021/11/15 02:06:04;;;;;;;54.33;28.77;;;-0.20;99.90;;;;;;4122554;28;21099;-63
2021/11/15 02:08:06;;;;;;;62.07;29.63;;;-0.30;99.90;;;;;;4123486;28;20820;-63
2021/11/15 02:10:10;;;;;;;62.50;29.90;;;-0.30;99.90;;;;;;4122835;28;21118;-62
2021/11/15 02:12:11;;;;;;;60.50;29.63;;;-0.30;99.90;;;;;;4122720;28;20319;-64
2021/11/15 02:14:12;;;;;;;61.93;28.93;;;-0.30;99.90;;;;;;4123314;28;20264;-66
2021/11/15 02:16:14;;;;;;;56.00;29.00;;;-0.30;99.90;;;;;;4122952;28;20315;-63
2021/11/15 02:18:16;;;;;;;48.77;23.93;;;-0.30;99.90;;;;;;4122991;28;20392;-62
2021/11/15 02:20:21;;;;;;;48.17;23.23;;;-0.40;99.90;;;;;;4122088;28;20268;-63
2021/11/15 02:22:22;;;;;;;51.07;24.40;;;-0.40;99.90;;;;;;4123449;28;20303;-62
2021/11/15 02:24:24;;;;;;;38.80;21.27;;;-0.50;99.90;;;;;;4121717;28;20272;-63
2021/11/15 02:26:25;;;;;;;42.30;22.03;;;-0.50;99.90;;;;;;4106606;28;20304;-63
2021/11/15 02:28:35;;;;;;;42.07;20.83;;;-0.50;99.90;;;;;;4107511;28;20279;-64
2021/11/15 02:30:36;;;;;;;41.53;20.20;;;-0.60;99.90;;;;;;4106395;28;20789;-63
2021/11/15 02:32:38;;;;;;;41.87;20.37;;;-0.60;99.90;;;;;;4106648;28;20316;-63
2021/11/15 02:34:39;;;;;;;40.03;21.03;;;-0.60;99.90;;;;;;4109876;28;20327;-63
2021/11/15 02:36:40;;;;;;;45.87;22.03;;;-0.60;99.90;;;;;;4109407;28;20269;-65
2021/11/15 02:38:41;;;;;;;42.33;21.57;;;-0.70;99.90;;;;;;4109301;28;20268;-66
2021/11/15 02:40:43;;;;;;;41.20;21.33;;;-0.70;99.90;;;;;;4108897;28;20299;-66
2021/11/15 02:42:46;;;;;;;51.87;24.50;;;-0.80;99.90;;;;;;4109958;28;20276;-64
2021/11/15 02:44:48;;;;;;;49.77;23.87;;;-0.90;99.90;;;;;;4109742;28;20682;-63
2021/11/15 02:46:51;;;;;;;53.27;24.47;;;-1.00;99.90;;;;;;4109210;28;20343;-65
2021/11/15 02:48:54;;;;;;;51.07;24.37;;;-1.10;99.90;;;;;;4107806;28;20805;-64
2021/11/15 02:50:55;;;;;;;52.43;24.13;;;-1.20;99.90;;;;;;4108670;28;20687;-64
2021/11/15 02:53:01;;;;;;;59.07;27.53;;;-1.10;99.90;;;;;;4109975;28;20273;-63
2021/11/15 02:55:03;;;;;;;49.33;25.20;;;-1.10;99.90;;;;;;4108725;28;20277;-64
2021/11/15 02:57:04;;;;;;;53.53;25.77;;;-1.20;99.90;;;;;;4109397;28;20339;-63
2021/11/15 02:59:05;;;;;;;60.77;27.53;;;-1.20;99.90;;;;;;4108315;28;20265;-66
2021/11/15 03:01:11;;;;;;;61.83;29.00;;;-1.20;99.90;;;;;;4109984;28;20320;-66
2021/11/15 03:03:13;;;;;;;54.63;28.50;;;-1.30;99.90;;;;;;4108949;28;20331;-64
2021/11/15 03:05:15;;;;;;;68.80;28.27;;;-1.30;99.90;;;;;;4109609;28;20273;-63
2021/11/15 03:07:16;;;;;;;73.87;27.97;;;-1.40;99.90;;;;;;4108934;28;20390;-65
2021/11/15 03:09:17;;;;;;;60.37;28.97;;;-1.50;99.90;;;;;;4118912;28;20327;-63
2021/11/15 03:11:18;;;;;;;69.83;30.80;;;-1.60;99.90;;;;;;4124243;28;20287;-63
2021/11/15 03:13:20;;;;;;;69.33;32.63;;;-1.70;99.90;;;;;;4124910;28;20280;-65
2021/11/15 03:15:26;;;;;;;66.87;31.10;;;-1.80;99.90;;;;;;4124959;28;20318;-63
2021/11/15 03:17:27;;;;;;;66.50;32.23;;;-1.80;99.90;;;;;;4121001;28;20685;-63
2021/11/15 03:19:28;;;;;;;72.83;36.30;;;-1.80;99.90;;;;;;4108777;28;20726;-63
2021/11/15 03:21:30;;;;;;;78.03;34.93;;;-1.70;99.90;;;;;;4109164;28;20715;-64
2021/11/15 03:23:33;;;;;;;82.70;36.53;;;-1.70;99.90;;;;;;4108384;28;20289;-63
2021/11/15 03:25:35;;;;;;;82.80;38.50;;;-1.70;99.90;;;;;;4109007;28;20300;-63
2021/11/15 03:27:36;;;;;;;74.47;36.37;;;-1.70;99.90;;;;;;4109349;28;20700;-64
2021/11/15 03:29:38;;;;;;;80.50;36.67;;;-1.70;99.90;;;;;;4107842;28;20331;-63
2021/11/15 03:31:40;;;;;;;80.47;37.87;;;-1.70;99.90;;;;;;4108996;28;20269;-63
2021/11/15 03:33:41;;;;;;;78.03;35.27;;;-1.70;99.90;;;;;;4108624;28;20287;-63
2021/11/15 03:35:43;;;;;;;75.30;37.50;;;-1.70;99.90;;;;;;4108460;28;20323;-64
2021/11/15 03:37:44;;;;;;;81.30;37.93;;;-1.80;99.90;;;;;;4108367;28;20324;-65
2021/11/15 03:39:45;;;;;;;80.70;37.63;;;-1.70;99.90;;;;;;4108858;28;20355;-64
2021/11/15 03:41:47;;;;;;;79.57;36.03;;;-1.70;99.90;;;;;;4108455;28;20351;-63
2021/11/15 03:43:48;;;;;;;79.20;37.00;;;-1.70;99.90;;;;;;4109290;28;20281;-65
2021/11/15 03:45:49;;;;;;;79.13;36.73;;;-1.80;99.90;;;;;;4107560;28;21259;-63
2021/11/15 03:47:51;;;;;;;78.50;35.93;;;-1.80;99.90;;;;;;4108678;28;20391;-62
2021/11/15 03:49:52;;;;;;;77.03;35.80;;;-1.90;99.90;;;;;;4107298;28;20323;-62
2021/11/15 03:51:53;;;;;;;69.60;36.70;;;-2.00;99.90;;;;;;4123284;28;20272;-64
2021/11/15 03:53:55;;;;;;;76.90;38.63;;;-2.10;99.90;;;;;;4124835;28;20260;-63
2021/11/15 03:55:56;;;;;;;76.73;37.10;;;-2.10;99.90;;;;;;4124763;28;20819;-63
2021/11/15 03:57:57;;;;;;;84.00;38.50;;;-2.20;99.90;;;;;;4124839;28;20272;-64
2021/11/15 03:59:59;;;;;;;75.50;37.33;;;-2.20;99.90;;;;;;4124092;28;20264;-62
2021/11/15 04:02:00;;;;;;;82.47;39.10;;;-2.20;99.90;;;;;;4124801;28;20347;-63
2021/11/15 04:04:04;;;;;;;82.60;37.33;;;-2.20;99.90;;;;;;4124063;28;20738;-63
2021/11/15 04:06:23;;;;;;;76.40;38.07;;;-2.20;99.90;;;;;;4124266;28;20276;-64
2021/11/15 04:08:24;;;;;;;76.87;36.53;;;-2.10;99.90;;;;;;4122834;28;20327;-64
2021/11/15 04:10:45;;;;;;;79.97;36.20;;;-2.10;99.90;;;;;;4124883;28;20664;-64
2021/11/15 04:12:47;;;;;;;75.18;35.38;;;-2.10;99.90;;;;;;4110326;28;20875;-64
2021/11/15 04:14:49;;;;;;;79.40;36.47;;;-2.10;99.90;;;;;;4108977;28;20109;-63
2021/11/15 04:16:52;;;;;;;79.57;36.33;;;-2.00;99.90;;;;;;4107998;28;20320;-63
2021/11/15 04:19:00;;;;;;;77.10;38.00;;;-2.00;99.90;;;;;;4108968;28;20265;-63
2021/11/15 04:21:03;;;;;;;84.43;38.30;;;-2.00;99.90;;;;;;4107401;28;20280;-63
2021/11/15 04:23:04;;;;;;;81.70;39.77;;;-2.10;99.90;;;;;;4109008;28;20323;-63
2021/11/15 04:25:07;;;;;;;85.83;38.50;;;-2.20;99.90;;;;;;4107561;28;20272;-63
2021/11/15 04:27:08;;;;;;;83.77;38.33;;;-2.20;99.90;;;;;;4108600;28;20284;-65
2021/11/15 04:29:10;;;;;;;85.83;38.20;;;-2.30;99.90;;;;;;4116643;28;20784;-63
2021/11/15 04:31:11;;;;;;;84.47;38.33;;;-2.30;99.90;;;;;;4124237;28;20741;-63
2021/11/15 04:33:12;;;;;;;83.10;38.87;;;-2.40;99.90;;;;;;4123575;28;20276;-62
2021/11/15 04:35:18;;;;;;;81.43;37.87;;;-2.50;99.90;;;;;;4124073;28;20815;-66
2021/11/15 04:37:19;;;;;;;97.30;38.03;;;-2.50;99.90;;;;;;4123583;28;20260;-65
2021/11/15 04:39:21;;;;;;;86.30;40.00;;;-2.60;99.90;;;;;;4123752;28;20303;-66
2021/11/15 04:41:22;;;;;;;91.67;40.20;;;-2.60;99.90;;;;;;4123707;28;20680;-63
2021/11/15 04:43:23;;;;;;;87.43;39.93;;;-2.60;99.90;;;;;;4123440;28;20680;-63
2021/11/15 04:45:25;;;;;;;80.17;38.80;;;-2.60;99.90;;;;;;4124079;28;20671;-62
2021/11/15 04:47:26;;;;;;;77.87;36.60;;;-2.70;99.90;;;;;;4122785;28;20299;-64
2021/11/15 04:49:27;;;;;;;79.10;36.40;;;-2.70;99.90;;;;;;4123154;28;20276;-62
2021/11/15 04:51:29;;;;;;;68.27;34.13;;;-2.70;99.90;;;;;;4122910;28;20319;-62
2021/11/15 04:53:30;;;;;;;73.53;36.33;;;-2.70;99.90;;;;;;4123474;28;20268;-63
2021/11/15 04:55:31;;;;;;;72.77;35.67;;;-2.80;99.90;;;;;;4123022;28;20290;-65
2021/11/15 04:57:32;;;;;;;76.43;34.10;;;-2.80;99.90;;;;;;4123877;28;20745;-63
2021/11/15 04:59:34;;;;;;;84.97;36.03;;;-2.90;99.90;;;;;;4122764;28;20272;-64
2021/11/15 05:01:35;;;;;;;78.65;38.25;;;-3.00;99.90;;;;;;4113350;28;20277;-65
2021/11/15 05:03:37;;;;;;;77.88;37.63;;;-3.10;99.90;;;;;;4107182;28;20797;-65
2021/11/15 05:05:38;;;;;;;81.10;41.00;;;-3.20;99.90;;;;;;4107576;28;20027;-62
2021/11/15 05:07:39;;;;;;;86.70;40.13;;;-3.20;99.90;;;;;;4106535;28;20374;-62
2021/11/15 05:09:40;;;;;;;130.95;47.53;;;-3.30;99.90;;;;;;4113934;28;20030;-62
2021/11/15 05:11:42;;;;;;;118.70;45.80;;;-3.40;99.90;;;;;;4124162;28;20068;-62
2021/11/15 05:13:43;;;;;;;121.80;44.47;;;-3.50;99.90;;;;;;4138786;28;20038;-62
2021/11/15 05:15:44;;;;;;;110.65;43.63;;;-3.60;99.90;;;;;;4135861;28;20030;-62
2021/11/15 05:17:48;;;;;;;108.10;43.85;;;-3.60;99.90;;;;;;4122087;28;20030;-63
2021/11/15 05:19:49;;;;;;;121.38;47.65;;;-3.70;99.90;;;;;;4121583;28;20042;-63
2021/11/15 05:21:51;;;;;;;105.93;45.72;;;-3.70;99.90;;;;;;4122418;28;20500;-63
2021/11/15 05:23:54;;;;;;;125.25;49.55;;;-3.60;99.90;;;;;;4137863;28;20526;-63
2021/11/15 05:25:55;;;;;;;140.40;49.38;;;-3.60;99.90;;;;;;4122380;28;20038;-62
2021/11/15 05:27:57;;;;;;;109.32;47.05;;;-3.60;99.90;;;;;;4123023;28;20101;-65
2021/11/15 05:29:58;;;;;;;127.78;49.10;;;-3.50;99.90;;;;;;4114175;28;20022;-62
2021/11/15 05:31:59;;;;;;;143.23;51.58;;;-3.50;99.90;;;;;;4112088;28;20434;-63
2021/11/15 05:34:02;;;;;;;129.90;47.70;;;-3.50;99.90;;;;;;4108437;28;20043;-65
2021/11/15 05:36:04;;;;;;;157.68;50.17;;;-3.50;99.90;;;;;;4108321;28;20043;-63
2021/11/15 05:38:07;;;;;;;144.15;50.63;;;-3.50;99.90;;;;;;4107739;28;20034;-63
2021/11/15 05:40:09;;;;;;;159.80;50.08;;;-3.50;99.90;;;;;;4109580;28;20124;-62
2021/11/15 05:42:11;;;;;;;202.40;52.67;;;-3.60;99.90;;;;;;4109732;28;20034;-63
2021/11/15 05:44:12;;;;;;;245.65;49.70;;;-3.60;99.90;;;;;;4108308;28;20591;-62
2021/11/15 05:46:13;;;;;;;156.82;44.25;;;-3.60;99.90;;;;;;4109605;28;20493;-64
2021/11/15 05:48:15;;;;;;;176.70;49.35;;;-3.70;99.90;;;;;;4107876;28;20035;-63
2021/11/15 05:50:19;;;;;;;164.27;49.53;;;-3.70;99.90;;;;;;4110460;28;20508;-65
2021/11/15 05:52:22;;;;;;;192.85;54.22;;;-3.60;99.90;;;;;;4117630;28;20057;-63
2021/11/15 05:54:24;;;;;;;149.45;48.60;;;-3.70;99.90;;;;;;4139276;28;20030;-68
2021/11/15 05:56:25;;;;;;;134.43;46.30;;;-3.70;99.90;;;;;;4131874;28;20085;-66
2021/11/15 05:58:26;;;;;;;152.80;51.08;;;-3.70;99.90;;;;;;4114468;28;20054;-62
2021/11/15 06:00:30;;;;;;;138.00;48.60;;;-3.70;99.90;;;;;;4117329;28;20108;-62
2021/11/15 06:02:31;;;;;;;187.88;53.17;;;-3.70;99.90;;;;;;4117178;28;20093;-63
2021/11/15 06:04:32;;;;;;;135.63;52.65;;;-3.80;99.90;;;;;;4115895;28;20034;-64
2021/11/15 06:06:33;;;;;;;119.75;49.95;;;-3.80;99.90;;;;;;4112983;28;20548;-61
2021/11/15 06:08:35;;;;;;;152.73;52.20;;;-3.70;99.90;;;;;;4119994;28;20105;-62
2021/11/15 06:10:36;;;;;;;139.40;49.85;;;-3.70;99.90;;;;;;4126081;28;20088;-61
2021/11/15 06:12:38;;;;;;;109.78;46.22;;;-3.60;99.90;;;;;;4124935;28;20030;-63
2021/11/15 06:14:39;;;;;;;107.30;46.65;;;-3.50;99.90;;;;;;4125630;28;20046;-66
2021/11/15 06:16:40;;;;;;;117.90;49.35;;;-3.50;99.90;;;;;;4124752;28;20085;-62
2021/11/15 06:18:42;;;;;;;125.25;49.33;;;-3.50;99.90;;;;;;4124026;28;20046;-62
2021/11/15 06:20:44;;;;;;;155.68;50.22;;;-3.40;99.90;;;;;;4125725;28;20042;-62
2021/11/15 06:22:46;;;;;;;201.73;56.90;;;-3.50;99.90;;;;;;4125229;28;20818;-61
2021/11/15 06:24:47;;;;;;;225.68;51.40;;;-3.50;99.90;;;;;;4125236;28;20046;-63
2021/11/15 06:26:48;;;;;;;207.25;50.30;;;-3.50;99.90;;;;;;4125477;28;20038;-63
2021/11/15 06:28:49;;;;;;;222.68;51.38;;;-3.50;99.90;;;;;;4125209;28;20062;-64
2021/11/15 06:30:51;;;;;;;203.63;49.53;;;-3.40;99.90;;;;;;4109683;28;20035;-62
2021/11/15 06:32:52;;;;;;;272.70;56.10;;;-3.40;99.90;;;;;;4109463;28;20060;-64
2021/11/15 06:34:53;;;;;;;135.75;48.45;;;-3.40;99.90;;;;;;4108481;28;20150;-63
2021/11/15 06:36:54;;;;;;;179.32;54.85;;;-3.30;99.90;;;;;;4110884;28;20130;-67
2021/11/15 06:38:58;;;;;;;280.70;52.88;;;-3.30;99.90;;;;;;4108858;28;20113;-63
2021/11/15 06:40:59;;;;;;;152.15;51.67;;;-3.20;99.90;;;;;;4109272;28;20089;-62
2021/11/15 06:43:00;;;;;;;185.43;54.80;;;-3.10;99.90;;;;;;4108497;28;20047;-64
2021/11/15 06:45:03;;;;;;;139.73;55.03;;;-3.00;99.90;;;;;;4109099;28;20408;-62
2021/11/15 06:47:04;;;;;;;135.05;52.38;;;-3.00;99.90;;;;;;4109061;28;20454;-64
2021/11/15 06:49:05;;;;;;;170.18;57.17;;;-2.90;99.90;;;;;;4108895;28;20038;-64
2021/11/15 06:51:11;;;;;;;157.70;57.33;;;-2.80;99.90;;;;;;4109071;28;20054;-63
2021/11/15 06:53:12;;;;;;;247.43;62.53;;;-2.80;99.90;;;;;;4108914;28;20042;-64
2021/11/15 06:55:15;;;;;;;224.50;55.30;;;-2.80;99.90;;;;;;4108669;28;20039;-64
2021/11/15 06:57:16;;;;;;;237.40;55.00;;;-2.80;99.90;;;;;;4108876;28;20027;-63
2021/11/15 06:59:19;;;;;;;170.98;50.10;;;-2.90;99.90;;;;;;4108643;28;20098;-64
2021/11/15 07:01:20;;;;;;;221.07;49.97;;;-2.80;99.90;;;;;;4108843;28;20023;-64
2021/11/15 07:03:21;;;;;;;305.35;53.13;;;-2.80;99.90;;;;;;4109266;28;20034;-64
2021/11/15 07:05:24;;;;;;;238.00;52.67;;;-2.80;99.90;;;;;;4108786;28;20030;-63
2021/11/15 07:07:25;;;;;;;257.50;50.17;;;-2.70;99.90;;;;;;4109242;28;20055;-63
2021/11/15 07:09:26;;;;;;;202.18;48.13;;;-2.70;99.90;;;;;;4108341;28;20027;-63
2021/11/15 07:11:27;;;;;;;263.67;49.03;;;-2.60;99.90;;;;;;4109526;28;20039;-65
2021/11/15 07:13:28;;;;;;;198.10;47.70;;;-2.60;99.90;;;;;;4108355;28;20770;-65
2021/11/15 07:15:30;;;;;;;303.13;55.15;;;-2.60;99.90;;;;;;4108902;28;20038;-65
2021/11/15 07:17:31;;;;;;;259.38;52.15;;;-2.50;99.90;;;;;;4107797;28;20042;-64
2021/11/15 07:19:32;;;;;;;348.50;61.53;;;-2.50;99.90;;;;;;4106638;28;20051;-62
2021/11/15 07:21:34;;;;;;;182.45;49.05;;;-2.40;99.90;;;;;;4108204;28;20805;-64
2021/11/15 07:23:35;;;;;;;238.60;50.20;;;-2.40;99.90;;;;;;4108438;28;20116;-65
2021/11/15 07:25:36;;;;;;;168.40;49.10;;;-2.30;99.90;;;;;;4108925;28;20785;-63
2021/11/15 07:27:39;;;;;;;169.60;50.57;;;-2.20;99.90;;;;;;4107956;28;20296;-64
2021/11/15 07:29:40;;;;;;;147.87;48.10;;;-2.10;99.90;;;;;;4108595;28;20293;-66
2021/11/15 07:31:43;;;;;;;136.10;49.63;;;-2.10;99.90;;;;;;4107822;28;20824;-64
2021/11/15 07:33:44;;;;;;;161.67;51.77;;;-2.00;99.90;;;;;;4109546;28;20260;-64
2021/11/15 07:35:45;;;;;;;169.53;48.77;;;-1.90;99.90;;;;;;4107735;28;20268;-64
2021/11/15 07:37:46;;;;;;;131.67;48.20;;;-1.90;99.90;;;;;;4108902;28;21027;-64
2021/11/15 07:39:48;;;;;;;233.77;58.87;;;-1.80;99.90;;;;;;4107321;28;20253;-62
2021/11/15 07:41:49;;;;;;;243.70;54.30;;;-1.80;99.90;;;;;;4108878;28;20269;-63
2021/11/15 07:43:50;;;;;;;139.30;47.93;;;-1.90;99.90;;;;;;4106708;28;20285;-64
2021/11/15 07:45:52;;;;;;;179.47;52.47;;;-1.80;99.90;;;;;;4108730;28;20384;-63
2021/11/15 07:47:53;;;;;;;241.33;53.17;;;-1.80;99.90;;;;;;4107596;28;20841;-63
2021/11/15 07:49:54;;;;;;;173.47;50.20;;;-1.80;99.90;;;;;;4108281;28;20305;-63
2021/11/15 07:51:55;;;;;;;224.77;48.83;;;-1.80;99.90;;;;;;4108190;28;20285;-64
2021/11/15 07:53:56;;;;;;;331.50;53.67;;;-1.80;99.90;;;;;;4108552;28;20273;-64
2021/11/15 07:55:58;;;;;;;146.80;47.17;;;-1.80;99.90;;;;;;4108523;28;20769;-65
2021/11/15 07:58:01;;;;;;;162.27;46.67;;;-1.70;99.90;;;;;;4107947;28;20280;-64
2021/11/15 08:00:06;;;;;;;156.17;46.93;;;-1.60;99.90;;;;;;4108091;28;20773;-65
2021/11/15 08:02:08;;;;;;;209.30;50.97;;;-1.60;99.90;;;;;;4108075;28;20269;-63
2021/11/15 08:04:09;;;;;;;163.03;52.70;;;-1.50;99.90;;;;;;4108619;28;21046;-63
2021/11/15 08:06:15;;;;;;;162.83;51.80;;;-1.40;99.90;;;;;;4107353;28;20277;-64
2021/11/15 08:08:16;;;;;;;183.60;53.30;;;-1.30;99.90;;;;;;4108887;28;21070;-63
2021/11/15 08:10:19;;;;;;;195.33;53.63;;;-1.20;99.90;;;;;;4106589;28;20277;-64
2021/11/15 08:12:21;;;;;;;123.23;49.20;;;-1.20;99.90;;;;;;4108621;28;20281;-65
2021/11/15 08:14:22;;;;;;;134.47;55.67;;;-1.10;99.90;;;;;;4106707;28;20359;-64
2021/11/15 08:16:24;;;;;;;180.57;53.87;;;-1.00;99.90;;;;;;4108563;28;20339;-63
2021/11/15 08:18:25;;;;;;;162.30;52.67;;;-0.90;99.90;;;;;;4107352;28;20272;-64
2021/11/15 08:20:29;;;;;;;155.57;53.33;;;-0.90;99.90;;;;;;4107964;28;20289;-64
2021/11/15 08:22:30;;;;;;;152.83;53.20;;;-0.80;99.90;;;;;;4107153;28;20886;-64
2021/11/15 08:24:59;;;;;;;142.37;54.87;;;-0.80;99.90;;;;;;4107433;28;20276;-63
2021/11/15 08:27:02;;;;;;;122.73;52.10;;;-0.60;99.90;;;;;;4107664;28;20353;-64
2021/11/15 08:29:09;;;;;;;134.77;54.40;;;-0.40;99.90;;;;;;4107615;28;20717;-64
2021/11/15 08:31:11;;;;;;;125.37;54.47;;;-0.20;99.90;;;;;;4106625;28;20335;-64
2021/11/15 08:33:14;;;;;;;123.33;53.33;;;-0.10;99.90;;;;;;4107129;28;20281;-64
2021/11/15 08:35:17;;;;;;;126.17;54.10;;;-0.10;99.90;;;;;;4107503;28;20332;-64
2021/11/15 08:37:19;;;;;;;122.90;53.13;;;0.10;99.90;;;;;;4107357;28;20666;-65
2021/11/15 08:39:22;;;;;;;125.10;53.07;;;0.20;99.90;;;;;;4106508;28;20339;-64
2021/11/15 08:41:39;;;;;;;135.17;56.53;;;0.20;99.90;;;;;;4107100;28;20653;-64
2021/11/15 08:43:40;;;;;;;120.70;53.13;;;0.30;99.90;;;;;;4107169;28;20292;-63
2021/11/15 08:45:42;;;;;;;131.30;50.70;;;0.40;99.90;;;;;;4105102;28;20277;-64
2021/11/15 08:47:43;;;;;;;118.67;50.23;;;0.60;99.90;;;;;;4106801;28;20284;-64
2021/11/15 08:49:44;;;;;;;138.10;49.50;;;0.60;99.90;;;;;;4107205;28;20364;-64
2021/11/15 08:51:46;;;;;;;126.50;51.10;;;0.70;99.90;;;;;;4107780;28;20289;-64
2021/11/15 08:53:49;;;;;;;116.43;52.00;;;0.80;99.90;;;;;;4107001;28;20343;-64
2021/11/15 08:55:51;;;;;;;121.33;53.33;;;0.90;99.90;;;;;;4108241;28;20367;-65
2021/11/15 08:57:53;;;;;;;110.67;48.90;;;1.10;99.90;;;;;;4107121;28;20829;-64
2021/11/15 08:59:55;;;;;;;108.37;49.87;;;1.30;99.90;;;;;;4107277;28;20852;-65
2021/11/15 09:01:58;;;;;;;100.87;46.47;;;1.50;99.90;;;;;;4106376;28;20276;-64
2021/11/15 09:04:00;;;;;;;96.17;42.90;;;1.60;99.90;;;;;;4107455;28;20327;-66
2021/11/15 09:06:01;;;;;;;92.90;43.47;;;1.70;99.90;;;;;;4106805;28;20331;-66
2021/11/15 09:08:02;;;;;;;99.10;45.40;;;1.70;99.90;;;;;;4106496;28;20320;-64
2021/11/15 09:10:06;;;;;;;93.70;43.70;;;1.80;99.90;;;;;;4106108;28;20289;-63
2021/11/15 09:12:09;;;;;;;89.90;45.93;;;2.00;99.90;;;;;;4106743;28;20264;-63
2021/11/15 09:14:10;;;;;;;97.70;47.80;;;2.20;99.90;;;;;;4106690;28;20320;-63
2021/11/15 09:16:14;;;;;;;90.27;45.83;;;2.50;99.90;;;;;;4106799;28;20277;-64
2021/11/15 09:18:16;;;;;;;86.83;42.50;;;2.60;99.90;;;;;;4106966;28;21190;-65
2021/11/15 09:20:18;;;;;;;87.17;42.73;;;2.70;99.90;;;;;;4106587;28;20409;-63
2021/11/15 09:22:20;;;;;;;80.40;41.57;;;2.80;99.90;;;;;;4107159;28;21240;-64
2021/11/15 09:24:22;;;;;;;79.40;40.63;;;2.90;99.90;;;;;;4106140;28;20273;-64
2021/11/15 09:26:26;;;;;;;79.17;40.90;;;3.00;99.90;;;;;;4107005;28;21032;-62
2021/11/15 09:28:28;;;;;;;78.20;40.30;;;3.00;99.90;;;;;;4106468;28;20380;-63
2021/11/15 09:30:29;;;;;;;79.50;40.93;;;3.10;99.90;;;;;;4107244;28;20273;-64
2021/11/15 09:32:31;;;;;;;81.63;38.37;;;3.20;99.90;;;;;;4105767;28;20292;-63
2021/11/15 09:34:32;;;;;;;83.63;42.27;;;3.30;99.90;;;;;;4107548;28;20336;-63
2021/11/15 09:36:34;;;;;;;77.40;41.27;;;3.50;99.90;;;;;;4106313;28;20591;-64
2021/11/15 09:38:36;;;;;;;83.73;40.30;;;3.50;99.90;;;;;;4106867;28;20285;-65
2021/11/15 09:40:37;;;;;;;82.17;42.07;;;3.70;99.90;;;;;;4106083;28;21119;-64
2021/11/15 09:42:39;;;;;;;72.23;38.50;;;3.80;99.90;;;;;;4106983;28;20277;-64
2021/11/15 09:44:41;;;;;;;71.50;39.10;;;3.90;99.90;;;;;;4109245;28;20277;-63
2021/11/15 09:46:45;;;;;;;75.97;37.77;;;4.00;99.90;;;;;;4109411;28;20265;-63
2021/11/15 09:48:50;;;;;;;77.47;39.30;;;4.10;99.90;;;;;;4109785;28;20293;-64
2021/11/15 09:50:52;;;;;;;67.60;37.37;;;4.20;99.90;;;;;;4110034;28;20351;-63
2021/11/15 09:52:54;;;;;;;77.37;39.70;;;4.30;99.90;;;;;;4109747;28;20276;-64
2021/11/15 09:54:55;;;;;;;74.80;38.03;;;4.50;99.90;;;;;;4109647;28;20300;-63
2021/11/15 09:56:56;;;;;;;73.83;40.10;;;4.60;99.90;;;;;;4110453;28;20675;-63
2021/11/15 09:58:57;;;;;;;73.83;37.83;;;4.80;99.90;;;;;;4109479;28;20725;-65
2021/11/15 10:00:59;;;;;;;70.57;39.03;;;4.90;99.90;;;;;;4109836;28;20768;-65
2021/11/15 10:03:02;;;;;;;62.93;35.97;;;5.10;99.90;;;;;;4108812;28;20277;-64
2021/11/15 10:05:07;;;;;;;68.13;37.17;;;5.20;99.90;;;;;;4110196;28;20261;-64
2021/11/15 10:07:09;;;;;;;67.50;34.13;;;5.50;99.90;;;;;;4108254;28;20323;-64
2021/11/15 10:09:10;;;;;;;61.27;33.10;;;5.60;99.90;;;;;;4110132;28;20292;-64
2021/11/15 10:11:12;;;;;;;53.47;29.33;;;5.90;99.90;;;;;;4109029;28;20319;-63
2021/11/15 10:13:22;;;;;;;52.73;28.47;;;6.10;99.90;;;;;;4109972;28;20378;-65
2021/11/15 10:15:24;;;;;;;52.25;28.75;;;6.20;99.90;;;;;;4107961;28;20762;-64
2021/11/15 10:17:44;;;;;;;49.07;27.40;;;6.50;99.90;;;;;;4109717;28;20070;-65